createdAt,value
2022-12-18T00:00:06.980Z,100633.84
2022-12-18T00:02:40.438Z,100652.38
2022-12-18T00:05:07.748Z,100632.81
2022-12-18T00:07:34.316Z,100642.53
2022-12-18T00:10:00.930Z,100622.75
2022-12-18T00:12:29.890Z,100641.38
2022-12-18T00:14:56.955Z,100650.41
2022-12-18T00:17:24.208Z,100651.44
2022-12-18T00:19:51.064Z,100636.34
2022-12-18T00:22:17.655Z,100637.59
2022-12-18T00:24:44.321Z,100660.63
2022-12-18T00:27:11.240Z,100645.03
2022-12-18T00:29:40.890Z,100654.53
2022-12-18T00:32:07.646Z,100674.91
2022-12-18T00:34:34.727Z,100673.22
2022-12-18T00:37:01.323Z,100681.06
2022-12-18T00:39:27.976Z,100679.59
2022-12-18T00:42:13.315Z,100682.41
2022-12-18T00:44:39.956Z,100688.78
2022-12-18T00:47:07.038Z,100671.37
2022-12-18T00:49:33.658Z,100691.37
2022-12-18T00:52:00.339Z,100693.22
2022-12-18T00:54:27.274Z,100697.94
2022-12-18T00:56:53.978Z,100697.09
2022-12-18T00:59:20.636Z,100700.75
2022-12-18T01:01:48.046Z,100689.28
2022-12-18T01:04:15.579Z,100694.31
2022-12-18T01:06:45.250Z,100713.31
2022-12-18T01:09:12.198Z,100714.53
2022-12-18T01:11:38.915Z,100713.44
2022-12-18T01:14:05.619Z,100722.56
2022-12-18T01:16:32.759Z,100734.06
2022-12-18T01:18:59.565Z,100713.09
2022-12-18T01:21:27.386Z,100709.62
2022-12-18T01:23:56.116Z,100727.44
2022-12-18T01:26:24.387Z,100733.53
2022-12-18T01:28:51.131Z,100745.66
2022-12-18T01:31:24.034Z,100745.66
2022-12-18T01:33:52.242Z,100730.62
2022-12-18T01:36:39.996Z,100751.94
2022-12-18T01:39:11.097Z,100761.53
2022-12-18T01:41:57.173Z,100744.75
2022-12-18T01:44:51.784Z,100764.81
2022-12-18T01:47:33.066Z,100761.66
2022-12-18T01:50:06.510Z,100766.13
2022-12-18T01:52:34.490Z,100757.75
2022-12-18T01:55:04.237Z,100745.44
2022-12-18T01:57:31.607Z,100772.03
2022-12-18T02:00:03.247Z,100769.78
2022-12-18T02:02:41.862Z,100775.22
2022-12-18T02:05:16.086Z,100763.72
2022-12-18T02:07:53.309Z,100794.72
2022-12-18T02:10:42.645Z,100770.81
2022-12-18T02:13:26.198Z,100793.97
2022-12-18T02:16:01.182Z,100800.31
2022-12-18T02:18:41.844Z,100784.72
2022-12-18T02:21:37.875Z,100801.62
2022-12-18T02:24:35.729Z,100792.84
2022-12-18T02:27:12.686Z,100804.94
2022-12-18T02:29:54.318Z,100812.41
2022-12-18T02:32:40.286Z,100809.06
2022-12-18T02:35:11.680Z,100803.84
2022-12-18T02:37:41.501Z,100811.69
2022-12-18T02:40:10.290Z,100814.38
2022-12-18T02:42:37.309Z,100821.56
2022-12-18T02:45:05.047Z,100816.13
2022-12-18T02:47:37.090Z,100821.66
2022-12-18T02:50:25.121Z,100825.66
2022-12-18T02:53:27.345Z,100840.03
2022-12-18T02:56:20.895Z,100836.00
2022-12-18T02:58:57.214Z,100841.25
2022-12-18T03:01:36.837Z,100867.34
2022-12-18T03:04:30.644Z,100856.41
2022-12-18T03:07:04.631Z,100880.50
2022-12-18T03:09:43.603Z,100876.19
2022-12-18T03:12:26.100Z,100889.19
2022-12-18T03:15:21.859Z,100884.31
2022-12-18T03:18:16.033Z,100887.56
2022-12-18T03:20:45.590Z,100908.47
2022-12-18T03:23:17.717Z,100891.47
2022-12-18T03:25:50.364Z,100905.03
2022-12-18T03:28:21.616Z,100902.50
2022-12-18T03:30:54.793Z,100923.50
2022-12-18T03:33:26.617Z,100919.25
2022-12-18T03:35:54.402Z,100915.09
2022-12-18T03:38:24.964Z,100903.03
2022-12-18T03:41:11.395Z,100905.63
2022-12-18T03:43:48.827Z,100908.84
2022-12-18T03:46:29.668Z,100914.44
2022-12-18T03:49:27.664Z,100911.22
2022-12-18T03:52:12.014Z,100922.25
2022-12-18T03:54:41.245Z,100921.00
2022-12-18T03:57:15.389Z,100931.25
2022-12-18T03:59:45.038Z,100917.94
2022-12-18T04:02:16.373Z,100942.63
2022-12-18T04:04:45.643Z,100929.34
2022-12-18T04:07:14.323Z,100943.75
2022-12-18T04:09:43.749Z,100930.41
2022-12-18T04:12:10.746Z,100949.44
2022-12-18T04:14:38.234Z,100954.44
2022-12-18T04:17:05.264Z,100966.63
2022-12-18T04:19:32.564Z,100970.16
2022-12-18T04:21:59.461Z,100963.25
2022-12-18T04:24:26.721Z,100973.63
2022-12-18T04:26:54.097Z,100988.41
2022-12-18T04:29:21.745Z,100976.81
2022-12-18T04:31:48.714Z,100995.50
2022-12-18T04:34:16.110Z,100991.19
2022-12-18T04:36:43.276Z,100994.06
2022-12-18T04:39:10.223Z,100999.97
2022-12-18T04:41:37.269Z,101003.41
2022-12-18T04:44:04.679Z,101008.72
2022-12-18T04:46:31.548Z,101004.81
2022-12-18T04:48:58.469Z,101032.97
2022-12-18T04:51:26.885Z,101023.47
2022-12-18T04:53:54.582Z,101028.78
2022-12-18T04:56:21.826Z,101039.28
2022-12-18T04:58:48.871Z,101030.09
2022-12-18T05:01:17.533Z,101043.91
2022-12-18T05:03:45.367Z,101028.62
2022-12-18T05:06:12.350Z,101046.59
2022-12-18T05:08:38.998Z,101049.19
2022-12-18T05:11:16.611Z,101039.00
2022-12-18T05:13:45.490Z,101058.81
2022-12-18T05:16:13.355Z,101073.78
2022-12-18T05:18:39.989Z,101067.34
2022-12-18T05:21:06.852Z,101073.94
2022-12-18T05:23:37.213Z,101082.75
2022-12-18T05:26:06.914Z,101084.16
2022-12-18T05:28:35.651Z,101091.50
2022-12-18T05:31:03.891Z,101104.72
2022-12-18T05:33:33.208Z,101109.19
2022-12-18T05:36:08.491Z,101100.56
2022-12-18T05:38:37.278Z,101097.50
2022-12-18T05:41:04.590Z,101113.59
2022-12-18T05:43:31.485Z,101115.37
2022-12-18T05:45:58.514Z,101124.19
2022-12-18T05:48:25.813Z,101116.00
2022-12-18T05:50:52.628Z,101140.78
2022-12-18T05:53:21.207Z,101150.38
2022-12-18T05:55:48.304Z,101147.97
2022-12-18T05:58:15.682Z,101151.81
2022-12-18T06:00:46.867Z,101152.75
2022-12-18T06:03:14.689Z,101169.78
2022-12-18T06:05:44.735Z,101182.84
2022-12-18T06:08:12.429Z,101177.62
2022-12-18T06:10:40.040Z,101182.97
2022-12-18T06:13:07.238Z,101185.72
2022-12-18T06:15:34.199Z,101197.25
2022-12-18T06:18:01.691Z,101195.41
2022-12-18T06:20:33.641Z,101181.03
2022-12-18T06:23:01.693Z,101206.50
2022-12-18T06:25:28.667Z,101189.78
2022-12-18T06:27:55.540Z,101197.31
2022-12-18T06:30:22.741Z,101206.81
2022-12-18T06:32:56.352Z,101205.91
2022-12-18T10:15:50.661Z,101540.47
2022-12-18T10:18:40.504Z,101540.47
2022-12-18T10:21:20.235Z,101535.34
2022-12-18T10:23:55.538Z,101545.84
2022-12-18T10:26:22.564Z,101548.59
2022-12-18T10:28:50.481Z,101554.97
2022-12-18T10:31:20.955Z,101546.34
2022-12-18T10:33:51.452Z,101560.22
2022-12-18T10:36:18.104Z,101545.87
2022-12-18T10:38:44.954Z,101563.81
2022-12-18T10:41:23.086Z,101565.63
2022-12-18T10:44:23.828Z,101546.97
2022-12-18T10:46:57.112Z,101564.91
2022-12-18T10:49:32.253Z,101557.12
2022-12-18T10:52:17.016Z,101567.56
2022-12-18T10:54:51.631Z,101570.22
2022-12-18T10:57:27.669Z,101564.19
2022-12-18T10:59:56.536Z,101540.38
2022-12-18T11:02:35.765Z,101567.75
2022-12-18T11:05:24.222Z,101564.19
2022-12-18T11:07:52.100Z,101565.09
2022-12-18T11:10:21.213Z,101573.78
2022-12-18T11:12:49.028Z,101560.06
2022-12-18T11:15:23.758Z,101582.63
2022-12-18T11:17:52.818Z,101582.63
2022-12-18T11:20:26.933Z,101594.75
2022-12-18T11:22:59.538Z,101596.47
2022-12-18T11:25:32.689Z,101607.78
2022-12-18T11:28:03.657Z,101611.22
2022-12-18T11:30:33.308Z,101634.75
2022-12-18T11:33:06.751Z,101617.47
2022-12-18T11:35:57.121Z,101626.22
2022-12-18T11:38:51.835Z,101632.31
2022-12-18T11:41:56.099Z,101645.28
2022-12-18T11:44:33.709Z,101653.87
2022-12-18T11:47:09.675Z,101653.00
2022-12-18T11:49:37.371Z,101648.78
2022-12-18T11:52:19.245Z,101658.25
2022-12-18T11:54:46.230Z,101637.84
2022-12-18T11:57:40.863Z,101643.53
2022-12-18T12:00:13.563Z,101652.22
2022-12-18T12:03:14.318Z,101656.56
2022-12-18T12:05:53.251Z,101639.59
2022-12-18T12:08:43.067Z,101666.22
2022-12-18T12:11:31.553Z,101662.75
2022-12-18T12:14:13.698Z,101680.06
2022-12-18T12:17:08.400Z,101668.88
2022-12-18T12:19:51.205Z,101679.47
2022-12-18T12:22:50.506Z,101675.97
2022-12-18T12:25:27.244Z,101675.97
2022-12-18T12:28:13.085Z,101694.03
2022-12-18T12:31:04.505Z,101690.50
2022-12-18T12:33:49.369Z,101683.03
2022-12-18T12:36:31.944Z,101711.47
2022-12-18T12:39:06.702Z,101696.75
2022-12-18T12:41:54.739Z,101699.44
2022-12-18T12:44:35.458Z,101714.81
2022-12-18T12:47:34.126Z,101720.81
2022-12-18T12:50:06.226Z,101729.53
2022-12-18T12:52:43.531Z,101721.22
2022-12-18T12:55:21.531Z,101735.75
2022-12-18T12:58:12.208Z,101737.66
2022-12-18T13:00:58.469Z,101735.75
2022-12-18T13:04:01.044Z,101751.56
2022-12-18T13:06:44.581Z,101766.16
2022-12-18T13:09:11.916Z,101757.53
2022-12-18T13:12:03.725Z,101763.66
2022-12-18T13:14:35.840Z,101777.62
2022-12-18T13:17:30.149Z,101771.59
2022-12-18T13:20:06.607Z,101775.16
2022-12-18T13:22:52.384Z,101786.50
2022-12-18T13:25:31.908Z,101773.84
2022-12-18T13:28:06.452Z,101799.56
2022-12-18T13:30:33.417Z,101793.44
2022-12-18T13:33:15.302Z,101796.91
2022-12-18T13:35:52.333Z,101801.25
2022-12-18T13:38:36.046Z,101803.91
2022-12-18T13:41:22.440Z,101808.34
2022-12-18T13:43:55.195Z,101818.81
2022-12-18T13:46:23.781Z,101828.47
2022-12-18T13:49:14.931Z,101824.25
2022-12-18T13:51:51.113Z,101826.06
2022-12-18T13:54:35.732Z,101833.87
2022-12-18T13:57:03.829Z,101831.56
2022-12-18T13:59:40.986Z,101842.66
2022-12-18T14:02:17.890Z,101831.69
2022-12-18T14:04:49.865Z,101827.50
2022-12-18T14:07:20.167Z,101844.03
2022-12-18T14:10:01.990Z,101856.72
2022-12-18T14:12:57.798Z,101866.38
2022-12-18T14:15:42.635Z,101872.47
2022-12-18T14:18:28.120Z,101875.97
2022-12-18T14:21:00.658Z,101877.69
2022-12-18T14:23:32.103Z,101870.22
2022-12-18T14:26:05.403Z,101890.75
2022-12-18T14:28:32.982Z,101900.38
2022-12-18T14:31:00.246Z,101900.50
2022-12-18T14:33:28.625Z,101904.81
2022-12-18T14:36:02.568Z,101908.34
2022-12-18T14:38:40.192Z,101925.72
2022-12-18T14:41:11.849Z,101929.28
2022-12-18T14:43:41.835Z,101934.59
2022-12-18T14:46:43.372Z,101938.16
2022-12-18T14:49:33.551Z,101937.25
2022-12-18T14:52:02.761Z,101945.13
2022-12-18T14:54:31.224Z,101943.78
2022-12-18T14:57:04.198Z,101957.47
2022-12-18T14:59:32.142Z,101955.87
2022-12-18T15:02:10.644Z,101944.88
2022-12-18T15:04:42.083Z,101962.88
2022-12-18T15:07:17.380Z,101961.19
2022-12-18T15:10:03.839Z,101965.47
2022-12-18T15:12:43.935Z,101970.72
2022-12-18T15:15:41.454Z,101969.06
2022-12-18T15:18:08.171Z,101978.63
2022-12-18T15:20:44.637Z,101979.50
2022-12-18T15:23:18.834Z,101983.00
2022-12-18T15:25:47.727Z,101983.00
2022-12-18T15:28:32.431Z,101993.41
2022-12-18T15:31:02.064Z,101996.06
2022-12-18T15:33:40.304Z,101979.88
2022-12-18T15:36:15.854Z,101982.53
2022-12-18T15:38:50.888Z,102002.19
2022-12-18T15:41:24.545Z,102016.19
2022-12-18T15:43:53.490Z,102027.53
2022-12-18T15:46:22.996Z,102024.09
2022-12-18T15:48:59.756Z,102036.31
2022-12-18T15:51:35.583Z,102051.06
2022-12-18T15:54:05.538Z,102052.91
2022-12-18T15:56:51.838Z,102050.34
2022-12-18T15:59:20.497Z,102066.06
2022-12-18T16:01:50.457Z,102074.75
2022-12-18T16:04:21.589Z,102076.66
2022-12-18T18:44:28.287Z,102320.97
2022-12-18T18:46:57.775Z,102320.97
2022-12-18T18:49:27.510Z,102328.75
2022-12-18T18:51:56.429Z,102311.72
2022-12-18T18:54:23.593Z,102322.00
2022-12-18T18:59:37.370Z,102336.03
2022-12-18T19:02:05.057Z,102349.06
2022-12-18T19:04:34.017Z,102344.75
2022-12-18T19:07:01.302Z,102337.97
2022-12-18T19:09:28.748Z,102359.59
2022-12-18T19:12:14.618Z,102360.50
2022-12-18T19:14:42.215Z,102359.69
2022-12-18T19:17:10.886Z,102361.47
2022-12-18T19:19:37.665Z,102367.59
2022-12-18T19:22:07.773Z,102371.12
2022-12-18T19:24:35.487Z,102376.28
2022-12-18T19:27:02.142Z,102379.81
2022-12-18T19:29:29.056Z,102382.47
2022-12-18T19:31:55.872Z,102403.16
2022-12-18T19:34:22.485Z,102407.50
2022-12-18T19:36:49.765Z,102399.78
2022-12-18T19:39:19.190Z,102422.25
2022-12-18T19:41:46.615Z,102436.16
2022-12-18T19:44:16.275Z,102428.41
2022-12-18T19:46:46.084Z,102429.28
2022-12-18T19:49:18.041Z,102444.91
2022-12-18T19:51:45.377Z,102444.06
2022-12-18T19:54:16.702Z,102438.88
2022-12-18T19:56:45.403Z,102449.28
2022-12-18T19:59:14.876Z,102444.97
2022-12-18T20:01:42.053Z,102467.47
2022-12-18T20:04:09.249Z,102461.44
2022-12-18T20:06:50.037Z,102459.72
2022-12-18T20:09:18.078Z,102463.16
2022-12-18T20:11:45.926Z,102458.97
2022-12-18T20:14:14.432Z,102467.47
2022-12-18T20:16:45.540Z,102465.72
2022-12-18T20:19:13.488Z,102486.53
2022-12-18T20:21:41.375Z,102477.03
2022-12-18T20:24:08.722Z,102476.19
2022-12-18T20:26:35.357Z,102478.81
2022-12-18T20:29:02.020Z,102490.13
2022-12-18T20:31:29.362Z,102483.22
2022-12-18T20:34:00.237Z,102481.63
2022-12-18T20:36:28.350Z,102495.34
2022-12-18T20:38:59.317Z,102498.78
2022-12-18T20:41:35.204Z,102516.09
2022-12-18T20:44:23.246Z,102496.31
2022-12-18T20:46:59.180Z,102531.66
2022-12-18T20:49:27.717Z,102529.09
2022-12-18T20:51:56.872Z,102534.28
2022-12-18T20:54:26.403Z,102542.09
2022-12-18T20:56:53.566Z,102538.66
2022-12-18T20:59:20.486Z,102543.88
2022-12-18T21:01:48.964Z,102546.50
2022-12-18T21:04:18.441Z,102549.16
2022-12-18T21:06:50.960Z,102550.03
2022-12-18T21:09:19.791Z,102557.75
2022-12-18T21:12:05.029Z,102558.59
2022-12-18T21:14:32.134Z,102561.22
2022-12-18T21:17:02.547Z,102556.94
2022-12-18T21:19:29.553Z,102549.28
2022-12-18T21:21:57.587Z,102569.13
2022-12-18T21:24:25.482Z,102571.81
2022-12-18T21:26:52.490Z,102563.19
2022-12-18T21:29:25.100Z,102575.31
2022-12-18T21:31:54.478Z,102555.50
2022-12-18T21:34:26.753Z,102559.09
2022-12-18T21:36:56.134Z,102577.19
2022-12-18T21:39:23.318Z,102559.25
2022-12-18T21:42:09.845Z,102575.63
2022-12-18T21:44:40.869Z,102577.41
2022-12-18T21:47:21.462Z,102581.78
2022-12-18T21:49:50.006Z,102585.34
2022-12-18T21:52:16.873Z,102579.37
2022-12-18T21:54:43.537Z,102586.41
2022-12-18T21:57:11.084Z,102576.16
2022-12-18T21:59:40.275Z,102571.97
